Time;durP1;ratioP1;P1;durP2;ratioP2;P2;SDS_P1;SDS_P2;PMS_P1;PMS_P2;Temp;Humidity;BMP_temperature;BMP_pressure;BME280_temperature;BME280_humidity;BME280_pressure;Samples;Min_cycle;Max_cycle;Signal;HPM_P1;HPM_P2
2022/11/26 00:00:51;;;;;;;7.40;3.80;;;2.20;86.70;;;;;;5013920;28;20193;-63
2022/11/26 00:03:17;;;;;;;9.03;4.17;;;2.20;86.70;;;;;;4998426;28;20434;-62
2022/11/26 00:05:47;;;;;;;5.57;4.30;;;2.10;86.70;;;;;;5031913;28;20509;-63
2022/11/26 00:08:29;;;;;;;6.57;4.07;;;2.10;86.60;;;;;;5014198;28;20442;-63
2022/11/26 00:10:56;;;;;;;6.60;3.70;;;2.10;86.60;;;;;;5011651;28;20506;-62
2022/11/26 00:13:28;;;;;;;6.77;4.07;;;2.10;86.60;;;;;;5024981;28;20465;-62
2022/11/26 00:15:54;;;;;;;6.93;4.13;;;2.10;86.60;;;;;;5013100;28;20422;-63
2022/11/26 00:18:22;;;;;;;6.93;3.90;;;2.00;86.60;;;;;;4996424;28;20444;-63
2022/11/26 00:20:54;;;;;;;7.13;3.80;;;2.00;86.60;;;;;;5029728;28;20529;-62
2022/11/26 00:23:22;;;;;;;6.50;3.60;;;2.00;86.60;;;;;;5009705;28;20448;-62
2022/11/26 00:25:53;;;;;;;7.93;3.87;;;2.00;86.70;;;;;;5014100;28;20458;-63
2022/11/26 00:28:25;;;;;;;4.10;3.20;;;2.00;86.70;;;;;;5029927;28;20452;-62
2022/11/26 00:30:51;;;;;;;7.17;3.93;;;2.00;86.80;;;;;;5014243;28;20437;-61
2022/11/26 00:33:17;;;;;;;20.30;11.83;;;2.00;86.90;;;;;;5017104;28;20451;-60
2022/11/26 00:35:45;;;;;;;14.80;8.30;;;2.00;86.90;;;;;;4991416;28;20434;-61
2022/11/26 00:38:18;;;;;;;18.77;10.93;;;2.00;86.90;;;;;;5000573;28;20343;-61
2022/11/26 00:40:44;;;;;;;21.27;12.30;;;2.00;86.90;;;;;;5015749;28;20441;-61
2022/11/26 00:43:15;;;;;;;22.47;11.30;;;2.00;86.80;;;;;;4999756;28;20424;-61
2022/11/26 00:45:42;;;;;;;19.27;10.07;;;2.00;86.80;;;;;;5028783;28;20193;-61
2022/11/26 00:48:07;;;;;;;14.40;7.30;;;2.00;86.90;;;;;;5015071;28;20433;-61
2022/11/26 00:50:39;;;;;;;11.33;8.10;;;2.00;86.90;;;;;;5016162;28;20437;-62
2022/11/26 00:53:05;;;;;;;12.23;7.53;;;2.00;86.90;;;;;;5016644;28;20271;-61
2022/11/26 00:55:35;;;;;;;9.83;7.00;;;2.00;87.00;;;;;;5012120;28;20512;-62
2022/11/26 00:58:01;;;;;;;10.73;7.47;;;2.00;87.00;;;;;;5017175;28;20576;-61
2022/11/26 01:00:30;;;;;;;12.10;7.17;;;2.00;86.90;;;;;;4998930;28;20528;-61
2022/11/26 01:02:56;;;;;;;8.73;6.13;;;2.00;86.90;;;;;;5017457;28;20516;-62
2022/11/26 01:05:24;;;;;;;9.70;5.20;;;2.00;86.90;;;;;;5043352;28;20437;-61
2022/11/26 01:07:51;;;;;;;7.57;5.03;;;2.00;87.00;;;;;;5002044;28;20445;-61
2022/11/26 01:10:21;;;;;;;7.87;5.10;;;2.00;87.10;;;;;;5016062;28;20425;-61
2022/11/26 01:12:47;;;;;;;8.77;5.60;;;2.00;87.20;;;;;;5008276;28;20442;-61
2022/11/26 01:15:13;;;;;;;6.47;4.90;;;2.00;87.20;;;;;;5001554;28;20477;-61
2022/11/26 01:17:39;;;;;;;5.87;4.33;;;2.00;87.20;;;;;;5032937;28;20233;-61
2022/11/26 01:20:51;;;;;;;11.83;5.20;;;2.00;87.10;;;;;;4999694;28;20532;-60
2022/11/26 01:23:28;;;;;;;6.73;4.90;;;1.90;87.00;;;;;;5015662;28;20430;-61
2022/11/26 01:26:48;;;;;;;8.83;4.43;;;1.90;87.00;;;;;;5008738;28;20446;-61
2022/11/26 01:29:51;;;;;;;6.83;4.03;;;1.90;86.90;;;;;;5020310;28;20427;-61
2022/11/26 01:32:17;;;;;;;6.57;3.80;;;1.90;86.90;;;;;;4990740;28;20599;-62
2022/11/26 01:34:42;;;;;;;6.50;4.30;;;1.90;86.90;;;;;;4999353;28;20564;-61
2022/11/26 01:37:12;;;;;;;6.80;3.97;;;1.80;86.90;;;;;;5002948;28;20259;-62
2022/11/26 01:39:38;;;;;;;5.40;3.83;;;1.80;86.90;;;;;;5005178;28;20296;-62
2022/11/26 01:42:13;;;;;;;7.90;4.43;;;1.80;87.00;;;;;;5009524;28;20497;-61
2022/11/26 01:44:38;;;;;;;6.10;4.13;;;1.80;87.00;;;;;;5009496;28;20197;-61
2022/11/26 01:47:24;;;;;;;6.27;4.60;;;1.80;87.00;;;;;;4982820;28;20433;-61
2022/11/26 01:50:27;;;;;;;5.53;3.63;;;1.80;87.00;;;;;;5013872;28;20584;-61
2022/11/26 01:53:13;;;;;;;7.40;3.93;;;1.80;87.00;;;;;;5018136;28;20438;-61
2022/11/26 01:55:48;;;;;;;6.10;4.00;;;1.80;87.00;;;;;;5022716;28;20421;-61
2022/11/26 01:58:22;;;;;;;5.50;3.53;;;1.80;87.10;;;;;;5010318;28;21072;-61
2022/11/26 02:00:49;;;;;;;5.93;3.93;;;1.80;87.00;;;;;;5001936;28;20947;-62
2022/11/26 02:03:16;;;;;;;5.13;3.87;;;1.80;87.10;;;;;;5019805;28;20441;-61
2022/11/26 02:05:56;;;;;;;5.67;3.57;;;1.80;87.10;;;;;;5010968;28;20434;-61
2022/11/26 02:08:23;;;;;;;7.43;3.83;;;1.80;87.00;;;;;;5014898;28;20445;-61
2022/11/26 02:10:51;;;;;;;6.07;4.10;;;1.80;87.00;;;;;;5017022;28;20426;-62
2022/11/26 02:13:17;;;;;;;7.20;5.10;;;1.80;87.00;;;;;;5016648;28;20469;-62
2022/11/26 02:15:52;;;;;;;5.63;4.40;;;1.70;87.10;;;;;;4981320;28;20525;-61
2022/11/26 02:18:19;;;;;;;7.13;4.30;;;1.80;87.20;;;;;;5015979;28;20429;-62
2022/11/26 02:20:52;;;;;;;6.53;4.20;;;1.80;87.20;;;;;;4997863;28;20477;-62
2022/11/26 02:23:33;;;;;;;3.80;3.40;;;1.80;87.20;;;;;;5020214;28;20433;-62
2022/11/26 02:26:08;;;;;;;5.33;3.10;;;1.80;87.20;;;;;;5014180;28;20444;-62
2022/11/26 02:29:02;;;;;;;4.70;3.33;;;1.70;87.30;;;;;;5015574;28;20429;-62
2022/11/26 02:31:36;;;;;;;6.43;3.70;;;1.70;87.30;;;;;;5027276;28;20544;-63
2022/11/26 02:34:13;;;;;;;7.70;3.70;;;1.70;87.40;;;;;;5012917;28;20508;-63
2022/11/26 02:36:57;;;;;;;4.27;3.33;;;1.70;87.50;;;;;;5034165;28;20512;-61
2022/11/26 02:39:26;;;;;;;6.90;4.10;;;1.80;87.50;;;;;;5014871;28;20516;-63
2022/11/26 02:41:55;;;;;;;6.43;4.53;;;1.80;87.60;;;;;;5012156;28;20491;-62
2022/11/26 02:44:24;;;;;;;3.73;3.30;;;1.80;87.60;;;;;;5015161;28;20536;-62
2022/11/26 02:46:56;;;;;;;5.20;3.60;;;1.90;87.60;;;;;;5013630;28;20429;-62
2022/11/26 02:49:23;;;;;;;5.63;3.73;;;1.90;87.60;;;;;;5014452;28;20445;-62
2022/11/26 02:51:53;;;;;;;5.90;3.87;;;1.90;87.70;;;;;;5014030;28;20463;-62
2022/11/26 02:54:20;;;;;;;5.97;3.63;;;2.00;87.70;;;;;;5012146;28;20980;-62
2022/11/26 02:56:54;;;;;;;5.80;3.57;;;2.00;87.70;;;;;;5007231;28;20440;-62
2022/11/26 02:59:20;;;;;;;4.07;3.23;;;2.10;87.80;;;;;;5011649;28;20429;-62
2022/11/26 03:02:29;;;;;;;5.30;3.07;;;2.10;87.90;;;;;;5014958;28;20846;-63
2022/11/26 03:05:06;;;;;;;4.60;3.10;;;2.20;87.90;;;;;;5019620;28;20194;-63
2022/11/26 03:07:34;;;;;;;6.97;3.93;;;2.20;87.80;;;;;;5011973;28;20423;-62
2022/11/26 03:10:01;;;;;;;5.43;3.70;;;2.20;87.70;;;;;;4999489;28;20968;-62
2022/11/26 03:12:28;;;;;;;4.87;3.07;;;2.20;87.70;;;;;;5015947;28;20455;-62
2022/11/26 03:14:57;;;;;;;5.97;2.87;;;2.30;87.70;;;;;;5002774;28;20827;-62
2022/11/26 03:17:22;;;;;;;4.67;3.27;;;2.30;87.70;;;;;;4999205;28;20432;-62
2022/11/26 03:19:49;;;;;;;6.33;3.67;;;2.30;87.70;;;;;;5015380;28;20425;-62
2022/11/26 03:22:15;;;;;;;6.77;3.33;;;2.30;87.70;;;;;;5010832;28;20195;-62
2022/11/26 03:25:36;;;;;;;4.50;3.07;;;2.30;87.80;;;;;;5015221;28;20429;-62
2022/11/26 03:28:02;;;;;;;6.13;3.57;;;2.40;87.80;;;;;;4992888;28;20191;-62
2022/11/26 03:30:28;;;;;;;3.77;3.10;;;2.40;87.80;;;;;;4996817;28;20445;-62
2022/11/26 03:32:54;;;;;;;4.87;2.93;;;2.40;87.80;;;;;;4995275;28;20508;-63
2022/11/26 03:35:20;;;;;;;3.77;3.13;;;2.50;87.80;;;;;;5011587;28;20238;-62
2022/11/26 03:37:46;;;;;;;5.50;3.47;;;2.60;87.90;;;;;;4983095;28;20451;-62
2022/11/26 03:40:12;;;;;;;6.67;3.70;;;2.60;87.90;;;;;;4996666;28;20203;-60
2022/11/26 03:42:38;;;;;;;3.70;2.87;;;2.60;87.90;;;;;;5007903;28;20196;-60
2022/11/26 03:45:04;;;;;;;5.20;3.53;;;2.60;87.80;;;;;;5013695;28;20445;-61
2022/11/26 03:47:30;;;;;;;4.73;3.00;;;2.60;87.80;;;;;;5001746;28;20200;-61
2022/11/26 03:49:55;;;;;;;4.90;2.97;;;2.70;87.70;;;;;;5006218;28;20447;-63
2022/11/26 03:52:21;;;;;;;5.53;2.70;;;2.70;87.80;;;;;;4997627;28;20193;-62
2022/11/26 03:54:46;;;;;;;5.27;3.50;;;2.70;87.80;;;;;;4995392;28;20356;-62
2022/11/26 03:57:12;;;;;;;4.40;3.23;;;2.70;87.80;;;;;;4980395;28;20188;-63
2022/11/26 03:59:38;;;;;;;5.07;2.73;;;2.70;87.80;;;;;;4996496;28;20196;-63
2022/11/26 04:02:04;;;;;;;3.83;3.43;;;2.80;87.80;;;;;;4996987;28;20241;-62
2022/11/26 04:04:30;;;;;;;6.57;3.40;;;2.80;87.80;;;;;;5004992;28;20282;-63
2022/11/26 04:06:56;;;;;;;7.40;3.00;;;2.80;87.80;;;;;;5015374;28;20571;-62
2022/11/26 04:09:22;;;;;;;5.57;2.80;;;2.80;87.90;;;;;;5001526;28;20187;-62
2022/11/26 04:11:48;;;;;;;6.03;3.37;;;2.80;87.90;;;;;;5002220;28;20191;-63
2022/11/26 04:14:14;;;;;;;5.57;3.43;;;2.90;87.80;;;;;;4999430;28;20547;-63
2022/11/26 04:16:40;;;;;;;4.23;2.47;;;2.90;87.80;;;;;;5002911;28;20203;-62
2022/11/26 04:19:05;;;;;;;4.60;3.37;;;2.90;87.90;;;;;;5019701;28;20190;-63
2022/11/26 04:21:31;;;;;;;4.40;3.40;;;2.90;87.80;;;;;;5002999;28;20213;-63
2022/11/26 04:23:56;;;;;;;4.50;3.10;;;2.90;87.80;;;;;;5001496;28;20198;-63
2022/11/26 04:26:22;;;;;;;6.53;3.67;;;3.00;87.80;;;;;;4991930;28;20198;-63
2022/11/26 04:28:49;;;;;;;3.47;2.80;;;3.00;87.70;;;;;;5019367;28;20274;-62
2022/11/26 04:31:15;;;;;;;5.80;3.30;;;3.00;87.70;;;;;;5003961;28;20195;-63
2022/11/26 04:33:42;;;;;;;3.70;2.97;;;3.00;87.70;;;;;;5017184;28;20464;-63
2022/11/26 04:36:08;;;;;;;5.23;3.40;;;3.00;87.70;;;;;;5020075;28;20426;-63
2022/11/26 04:38:34;;;;;;;5.13;3.20;;;3.00;87.70;;;;;;4992305;28;20485;-63
2022/11/26 04:41:00;;;;;;;4.80;3.80;;;3.10;87.70;;;;;;5003337;28;20190;-63
2022/11/26 04:43:25;;;;;;;5.10;3.40;;;3.00;87.70;;;;;;5036530;28;20187;-63
2022/11/26 04:45:51;;;;;;;4.47;3.00;;;3.00;87.60;;;;;;5019251;28;20445;-63
2022/11/26 04:48:24;;;;;;;4.70;3.27;;;3.00;87.60;;;;;;5030874;28;20278;-63
2022/11/26 04:50:50;;;;;;;5.13;3.40;;;3.00;87.50;;;;;;5032985;28;20521;-63
2022/11/26 04:53:20;;;;;;;5.53;3.27;;;3.00;87.50;;;;;;5033358;28;20540;-62
2022/11/26 04:56:08;;;;;;;7.07;3.50;;;3.10;87.50;;;;;;5000083;28;20195;-62
2022/11/26 04:58:34;;;;;;;4.60;2.73;;;3.10;87.50;;;;;;5009933;28;20444;-62
2022/11/26 05:01:01;;;;;;;4.27;3.00;;;3.10;87.40;;;;;;4999724;28;20422;-62
2022/11/26 05:03:26;;;;;;;5.47;3.10;;;3.10;87.40;;;;;;4995959;28;20661;-63
2022/11/26 05:05:52;;;;;;;5.63;3.00;;;3.10;87.40;;;;;;4991291;28;20495;-63
2022/11/26 05:08:18;;;;;;;4.77;2.97;;;3.10;87.40;;;;;;4991613;28;20218;-62
2022/11/26 05:10:44;;;;;;;4.10;2.57;;;3.10;87.40;;;;;;5005523;28;20446;-63
2022/11/26 05:13:09;;;;;;;6.00;3.13;;;3.10;87.40;;;;;;4985731;28;20258;-63
2022/11/26 05:15:35;;;;;;;5.03;3.07;;;3.10;87.50;;;;;;5026801;28;20204;-62
2022/11/26 05:18:01;;;;;;;4.73;2.70;;;3.20;87.50;;;;;;5002543;28;20233;-62
2022/11/26 05:20:26;;;;;;;4.77;3.03;;;3.10;87.50;;;;;;4986715;28;20199;-63
2022/11/26 05:22:55;;;;;;;4.37;3.10;;;3.20;87.50;;;;;;5018595;28;20179;-62
2022/11/26 05:25:22;;;;;;;4.97;2.77;;;3.20;87.60;;;;;;5018862;28;20210;-62
2022/11/26 05:27:47;;;;;;;4.30;2.90;;;3.30;87.60;;;;;;4986079;28;20434;-62
2022/11/26 05:30:13;;;;;;;4.30;2.90;;;3.30;87.60;;;;;;4986294;28;20257;-63
2022/11/26 05:32:39;;;;;;;2.63;2.40;;;3.30;87.60;;;;;;5002059;28;20199;-61
2022/11/26 05:35:05;;;;;;;4.60;3.43;;;3.30;87.60;;;;;;5012672;28;20253;-61
2022/11/26 05:37:30;;;;;;;4.73;3.17;;;3.30;87.60;;;;;;5002593;28;20187;-62
2022/11/26 05:39:56;;;;;;;4.53;3.53;;;3.30;87.50;;;;;;5012304;28;20622;-61
2022/11/26 05:42:22;;;;;;;4.83;3.23;;;3.40;87.50;;;;;;4983059;28;20186;-62
2022/11/26 05:44:47;;;;;;;3.40;3.10;;;3.40;87.50;;;;;;5034877;28;20188;-62
2022/11/26 05:47:20;;;;;;;4.57;3.10;;;3.40;87.50;;;;;;4998512;28;20194;-62
2022/11/26 05:49:45;;;;;;;3.30;3.00;;;3.40;87.50;;;;;;5032011;28;20649;-62
2022/11/26 05:52:11;;;;;;;5.83;3.60;;;3.40;87.50;;;;;;5013640;28;20442;-62
2022/11/26 05:54:37;;;;;;;5.83;3.53;;;3.40;87.40;;;;;;5036217;28;20287;-62
2022/11/26 05:57:03;;;;;;;7.13;3.90;;;3.40;87.40;;;;;;4998598;28;20207;-62
2022/11/26 05:59:28;;;;;;;5.27;3.43;;;3.40;87.40;;;;;;4994898;28;20184;-62
2022/11/26 06:01:54;;;;;;;4.60;3.50;;;3.50;87.40;;;;;;5011231;28;20188;-63
2022/11/26 06:04:20;;;;;;;5.33;3.50;;;3.50;87.30;;;;;;4997246;28;20229;-63
2022/11/26 06:06:45;;;;;;;5.63;3.17;;;3.50;87.30;;;;;;4982274;28;20249;-64
2022/11/26 06:09:11;;;;;;;4.00;3.37;;;3.50;87.30;;;;;;5001009;28;20211;-63
2022/11/26 06:11:36;;;;;;;5.33;2.70;;;3.50;87.20;;;;;;4998230;28;20199;-63
2022/11/26 06:14:02;;;;;;;4.90;3.50;;;3.60;87.10;;;;;;4998094;28;20274;-64
2022/11/26 06:16:28;;;;;;;5.17;3.20;;;3.60;87.00;;;;;;4988661;28;20200;-64
2022/11/26 06:18:54;;;;;;;5.27;3.03;;;3.60;87.00;;;;;;4998398;28;20195;-64
2022/11/26 06:21:20;;;;;;;5.20;3.23;;;3.60;87.00;;;;;;5020085;28;20198;-63
2022/11/26 06:24:00;;;;;;;5.63;3.30;;;3.60;86.90;;;;;;4981103;28;20434;-63
2022/11/26 06:26:29;;;;;;;4.70;2.83;;;3.60;86.90;;;;;;4995233;28;20224;-64
2022/11/26 06:28:56;;;;;;;8.30;3.10;;;3.60;86.90;;;;;;5013056;28;20434;-63
2022/11/26 06:31:21;;;;;;;5.90;3.63;;;3.60;86.80;;;;;;5012252;28;20437;-64
2022/11/26 06:33:47;;;;;;;4.27;3.07;;;3.60;86.80;;;;;;4994544;28;20206;-63
2022/11/26 06:36:13;;;;;;;4.43;3.40;;;3.60;86.80;;;;;;4996610;28;20278;-64
2022/11/26 06:38:38;;;;;;;4.77;3.07;;;3.60;86.70;;;;;;5015296;28;20282;-64
2022/11/26 06:41:06;;;;;;;4.30;3.00;;;3.60;86.70;;;;;;4999606;28;20196;-64
2022/11/26 06:43:33;;;;;;;4.97;3.10;;;3.60;86.70;;;;;;5016893;28;20195;-64
2022/11/26 06:46:04;;;;;;;5.60;3.47;;;3.60;86.70;;;;;;5014033;28;20453;-64
2022/11/26 06:48:30;;;;;;;5.73;3.40;;;3.60;86.70;;;;;;4999384;28;20442;-64
2022/11/26 06:50:56;;;;;;;5.93;3.53;;;3.60;86.60;;;;;;5011188;28;20427;-62
2022/11/26 06:53:22;;;;;;;5.70;3.63;;;3.60;86.70;;;;;;4994888;28;20442;-64
2022/11/26 06:55:48;;;;;;;5.43;3.40;;;3.60;86.70;;;;;;4994558;28;20434;-64
2022/11/26 06:58:16;;;;;;;5.50;3.60;;;3.60;86.60;;;;;;5014509;28;20188;-66
2022/11/26 07:00:42;;;;;;;4.97;3.47;;;3.70;86.70;;;;;;5012660;28;20459;-63
2022/11/26 07:03:08;;;;;;;4.33;3.37;;;3.70;86.70;;;;;;4994496;28;20484;-63
2022/11/26 07:05:35;;;;;;;7.30;3.57;;;3.70;86.60;;;;;;5001272;28;20195;-63
2022/11/26 07:08:01;;;;;;;5.37;4.03;;;3.70;86.60;;;;;;5010805;28;20517;-63
2022/11/26 07:10:27;;;;;;;5.30;3.83;;;3.70;86.60;;;;;;5009411;28;20512;-63
2022/11/26 07:12:53;;;;;;;8.20;4.83;;;3.80;86.70;;;;;;4997582;28;20202;-63
2022/11/26 07:15:19;;;;;;;10.13;4.90;;;3.80;86.70;;;;;;4996236;28;20527;-64
2022/11/26 07:17:44;;;;;;;6.57;4.60;;;3.80;86.70;;;;;;5000022;28;20194;-63
2022/11/26 07:20:11;;;;;;;8.53;5.90;;;3.90;86.70;;;;;;4995147;28;20219;-64
2022/11/26 07:22:36;;;;;;;8.73;5.37;;;3.90;86.70;;;;;;4996278;28;20722;-64
2022/11/26 07:25:02;;;;;;;10.53;6.27;;;3.90;86.70;;;;;;4980461;28;20593;-63
2022/11/26 07:27:28;;;;;;;10.47;6.37;;;3.90;86.70;;;;;;4977555;28;20203;-63
2022/11/26 07:29:53;;;;;;;9.37;6.57;;;4.00;86.70;;;;;;5020428;28;20195;-63
2022/11/26 07:32:19;;;;;;;8.33;6.40;;;4.10;86.60;;;;;;4996125;28;20199;-62
2022/11/26 07:34:45;;;;;;;9.77;6.90;;;4.10;86.60;;;;;;5008215;28;20218;-62
2022/11/26 07:37:10;;;;;;;10.47;7.70;;;4.10;86.70;;;;;;4980072;28;20192;-62
2022/11/26 07:39:36;;;;;;;11.37;7.63;;;4.20;86.60;;;;;;4980123;28;20305;-62
2022/11/26 07:42:01;;;;;;;11.50;8.33;;;4.30;86.60;;;;;;4977770;28;20289;-62
2022/11/26 07:44:27;;;;;;;12.17;8.33;;;4.30;86.50;;;;;;4995573;28;20195;-62
2022/11/26 07:46:53;;;;;;;10.80;7.37;;;4.40;86.50;;;;;;4993264;28;20188;-61
2022/11/26 07:49:18;;;;;;;12.77;6.80;;;4.40;86.50;;;;;;4996921;28;20196;-61
2022/11/26 07:51:44;;;;;;;11.97;6.90;;;4.50;86.30;;;;;;5006649;28;20204;-61
2022/11/26 07:54:10;;;;;;;10.10;7.10;;;4.60;86.20;;;;;;4995226;28;20294;-61
2022/11/26 07:56:35;;;;;;;10.30;7.93;;;4.60;85.80;;;;;;4996146;28;20207;-61
2022/11/26 07:59:01;;;;;;;13.07;9.17;;;4.70;85.90;;;;;;5013527;28;20191;-63
2022/11/26 08:01:30;;;;;;;15.00;9.47;;;4.80;85.50;;;;;;5029387;28;20192;-62
2022/11/26 08:03:57;;;;;;;15.07;10.03;;;4.80;85.10;;;;;;4979131;28;20199;-61
2022/11/26 08:06:25;;;;;;;15.83;9.00;;;4.80;85.10;;;;;;5009860;28;20426;-62
2022/11/26 08:08:51;;;;;;;18.87;11.73;;;4.80;84.80;;;;;;5012766;28;20469;-61
2022/11/26 08:11:22;;;;;;;26.23;14.60;;;4.90;84.90;;;;;;5010277;28;20434;-61
2022/11/26 08:13:51;;;;;;;14.50;9.07;;;5.00;84.70;;;;;;5009848;28;20225;-61
2022/11/26 08:16:17;;;;;;;11.23;7.50;;;5.10;84.80;;;;;;4997286;28;20422;-63
2022/11/26 08:18:43;;;;;;;11.20;7.07;;;5.20;84.60;;;;;;4990978;28;20434;-63
2022/11/26 08:21:08;;;;;;;12.70;7.63;;;5.20;84.00;;;;;;4998398;28;20233;-62
2022/11/26 08:23:35;;;;;;;11.33;7.50;;;5.30;84.00;;;;;;5031057;28;20196;-63
2022/11/26 08:26:09;;;;;;;12.40;7.73;;;5.30;84.20;;;;;;5012035;28;20219;-63
2022/11/26 08:28:35;;;;;;;10.77;7.10;;;5.40;84.20;;;;;;5012870;28;20947;-63
2022/11/26 08:31:03;;;;;;;11.40;7.57;;;5.50;84.20;;;;;;5002342;28;20446;-64
2022/11/26 08:33:29;;;;;;;12.60;7.93;;;5.60;83.90;;;;;;5009138;28;20185;-63
2022/11/26 08:35:55;;;;;;;13.33;8.30;;;5.70;84.10;;;;;;5005243;28;20435;-63
2022/11/26 08:38:21;;;;;;;13.07;8.30;;;5.80;83.90;;;;;;5007330;28;20470;-63
2022/11/26 08:40:46;;;;;;;12.30;8.37;;;5.90;83.70;;;;;;5012104;28;20191;-61
2022/11/26 08:43:12;;;;;;;16.73;9.53;;;5.90;83.80;;;;;;4998492;28;20192;-63
2022/11/26 08:45:37;;;;;;;12.33;8.73;;;6.00;83.40;;;;;;5011857;28;20198;-62
2022/11/26 08:48:03;;;;;;;13.03;8.63;;;6.10;83.50;;;;;;4999916;28;20211;-63
2022/11/26 08:50:29;;;;;;;15.80;7.43;;;6.20;83.30;;;;;;4995196;28;20199;-62
2022/11/26 08:52:55;;;;;;;12.07;8.53;;;6.30;83.20;;;;;;4981940;28;20293;-63
2022/11/26 08:55:21;;;;;;;10.80;7.63;;;6.40;82.60;;;;;;4996552;28;20299;-62
2022/11/26 08:57:46;;;;;;;10.63;7.10;;;6.50;82.60;;;;;;4996299;28;20184;-62
2022/11/26 09:00:13;;;;;;;11.50;7.40;;;6.60;82.50;;;;;;4999827;28;20227;-62
2022/11/26 09:02:38;;;;;;;8.17;5.73;;;6.70;82.50;;;;;;5014570;28;20192;-63
2022/11/26 09:05:04;;;;;;;7.73;5.60;;;6.70;81.20;;;;;;4998999;28;20438;-62
2022/11/26 09:07:30;;;;;;;10.70;5.27;;;6.70;80.50;;;;;;5015070;28;20192;-63
2022/11/26 09:09:56;;;;;;;7.50;5.53;;;6.80;80.10;;;;;;4999695;28;20418;-64
2022/11/26 09:12:21;;;;;;;6.87;5.07;;;6.80;80.50;;;;;;4998884;28;20219;-64
2022/11/26 09:14:47;;;;;;;8.30;5.10;;;6.90;79.20;;;;;;4988203;28;20220;-62
2022/11/26 09:17:13;;;;;;;6.50;4.60;;;7.00;79.10;;;;;;4999235;28;20187;-62
2022/11/26 09:19:38;;;;;;;5.53;4.30;;;7.10;79.20;;;;;;5013765;28;20190;-62
2022/11/26 09:22:04;;;;;;;12.30;5.43;;;7.20;79.20;;;;;;4998838;28;20191;-61
2022/11/26 09:24:30;;;;;;;10.63;6.10;;;7.20;78.60;;;;;;5011423;28;20179;-61
2022/11/26 09:26:55;;;;;;;8.83;6.03;;;7.30;78.00;;;;;;5024249;28;20189;-63
2022/11/26 09:29:22;;;;;;;8.47;5.70;;;7.30;78.10;;;;;;4996670;28;20196;-63
2022/11/26 09:31:49;;;;;;;6.83;4.83;;;7.30;77.20;;;;;;4995843;28;20200;-63
2022/11/26 09:34:15;;;;;;;5.23;4.57;;;7.40;77.70;;;;;;4990204;28;20462;-64
2022/11/26 09:36:41;;;;;;;9.13;5.10;;;7.50;77.10;;;;;;5018293;28;20431;-63
2022/11/26 09:39:07;;;;;;;5.37;4.50;;;7.40;75.90;;;;;;4998942;28;20239;-62
2022/11/26 09:41:45;;;;;;;5.73;4.60;;;7.50;76.20;;;;;;4999029;28;20179;-61
2022/11/26 09:44:23;;;;;;;6.87;4.87;;;7.60;76.20;;;;;;5014170;28;20804;-63
2022/11/26 09:46:58;;;;;;;8.17;5.10;;;7.70;76.20;;;;;;5008826;28;20436;-63
2022/11/26 09:49:26;;;;;;;5.30;4.70;;;7.70;76.90;;;;;;5007532;28;20933;-63
2022/11/26 09:51:56;;;;;;;7.13;5.37;;;7.80;75.40;;;;;;5003217;28;21101;-63
2022/11/26 09:54:26;;;;;;;9.33;4.90;;;7.80;74.80;;;;;;4999042;28;20563;-62
2022/11/26 09:57:00;;;;;;;7.87;5.43;;;7.90;74.80;;;;;;5013227;28;20429;-62
2022/11/26 09:59:28;;;;;;;7.43;5.17;;;7.90;74.70;;;;;;5011776;28;20783;-64
2022/11/26 10:01:54;;;;;;;6.93;4.80;;;8.00;74.90;;;;;;5004919;28;20434;-61
2022/11/26 10:04:28;;;;;;;6.00;4.37;;;8.10;75.20;;;;;;5007962;28;20789;-62
2022/11/26 10:07:02;;;;;;;6.73;4.47;;;8.20;75.30;;;;;;5008911;28;20329;-61
2022/11/26 10:09:58;;;;;;;6.47;3.97;;;8.30;75.50;;;;;;5012174;28;20996;-61
2022/11/26 10:12:48;;;;;;;9.73;4.70;;;8.30;73.80;;;;;;5012265;28;20475;-61
2022/11/26 10:15:42;;;;;;;5.70;4.10;;;8.30;73.50;;;;;;5008218;28;20564;-61
2022/11/26 10:18:32;;;;;;;5.50;4.10;;;8.30;72.10;;;;;;5007109;28;20430;-61
2022/11/26 10:21:27;;;;;;;8.33;5.23;;;8.50;72.60;;;;;;5007231;28;20438;-59
2022/11/26 10:24:37;;;;;;;8.87;5.70;;;8.50;73.40;;;;;;5005033;28;20422;-62
2022/11/26 10:27:17;;;;;;;7.07;4.70;;;8.50;72.10;;;;;;4955302;28;20955;-61
2022/11/26 10:29:53;;;;;;;6.70;4.87;;;8.60;72.20;;;;;;5007327;28;20498;-61
2022/11/26 10:32:37;;;;;;;7.00;4.87;;;8.60;71.80;;;;;;5012145;28;20430;-62
2022/11/26 10:35:03;;;;;;;10.83;5.87;;;8.70;71.40;;;;;;5011584;28;20466;-62
2022/11/26 10:37:29;;;;;;;9.80;5.13;;;8.70;72.00;;;;;;5007770;28;20431;-62
2022/11/26 10:40:08;;;;;;;7.57;5.40;;;8.70;71.00;;;;;;5032913;28;20277;-63
2022/11/26 10:42:54;;;;;;;11.50;5.37;;;8.70;70.90;;;;;;5010165;28;20179;-62
2022/11/26 10:45:25;;;;;;;11.07;5.90;;;8.70;71.00;;;;;;5005367;28;20474;-63
2022/11/26 10:47:51;;;;;;;7.27;5.17;;;8.70;71.90;;;;;;5011768;28;20414;-62
2022/11/26 10:50:23;;;;;;;6.00;4.23;;;8.80;71.10;;;;;;4994709;28;20443;-63
2022/11/26 10:52:53;;;;;;;5.93;4.47;;;8.90;70.60;;;;;;5008512;28;20188;-63
2022/11/26 10:55:39;;;;;;;5.57;4.20;;;9.00;70.00;;;;;;5010970;28;20470;-62
2022/11/26 10:58:15;;;;;;;7.37;4.87;;;9.10;70.10;;;;;;5006054;28;20434;-61
2022/11/26 11:00:47;;;;;;;7.87;5.17;;;9.20;69.10;;;;;;5007568;28;20186;-63
2022/11/26 11:03:27;;;;;;;6.73;4.30;;;9.30;69.50;;;;;;4993439;28;20203;-62
2022/11/26 11:06:10;;;;;;;5.53;4.10;;;9.30;68.70;;;;;;5008253;28;20268;-62
2022/11/26 11:08:36;;;;;;;6.00;4.23;;;9.40;67.50;;;;;;5011482;28;20180;-60
2022/11/26 11:11:03;;;;;;;10.50;5.00;;;9.50;67.30;;;;;;4995690;28;20188;-62
2022/11/26 11:13:58;;;;;;;8.50;5.57;;;9.40;66.00;;;;;;4995294;28;20279;-61
2022/11/26 11:16:38;;;;;;;7.27;5.67;;;9.50;66.60;;;;;;4984765;28;20199;-68
2022/11/26 11:19:19;;;;;;;7.30;5.30;;;9.50;67.20;;;;;;5006673;28;20179;-61
2022/11/26 11:21:45;;;;;;;6.83;4.53;;;9.50;67.50;;;;;;4995505;28;20271;-61
2022/11/26 11:24:20;;;;;;;6.57;4.20;;;9.50;66.10;;;;;;5009607;28;20282;-61
2022/11/26 11:26:48;;;;;;;5.97;3.93;;;9.50;65.90;;;;;;5014395;28;20215;-61
2022/11/26 11:29:35;;;;;;;7.30;4.53;;;9.50;66.00;;;;;;5012990;28;20461;-61
2022/11/26 11:32:04;;;;;;;5.40;4.10;;;9.60;66.80;;;;;;5008661;28;20194;-61
2022/11/26 11:34:33;;;;;;;7.27;4.20;;;9.60;67.00;;;;;;5007809;28;20204;-62
2022/11/26 11:37:19;;;;;;;4.73;3.13;;;9.60;67.30;;;;;;5006552;28;20184;-63
2022/11/26 11:40:03;;;;;;;6.40;3.17;;;9.70;67.50;;;;;;5006844;28;20529;-62
2022/11/26 11:42:29;;;;;;;4.73;3.23;;;9.70;67.00;;;;;;5008388;28;20182;-62
2022/11/26 11:44:57;;;;;;;3.60;2.80;;;9.80;66.50;;;;;;4996464;28;20194;-62
2022/11/26 11:47:25;;;;;;;3.67;2.70;;;9.80;63.90;;;;;;4993324;28;20278;-62
2022/11/26 11:50:12;;;;;;;4.77;2.87;;;9.90;63.50;;;;;;5010532;28;20215;-61
2022/11/26 11:53:05;;;;;;;6.10;3.97;;;10.00;63.60;;;;;;5010816;28;20191;-62
2022/11/26 11:55:31;;;;;;;4.97;3.87;;;10.10;64.10;;;;;;5001777;28;20250;-62
2022/11/26 11:58:06;;;;;;;6.20;4.47;;;10.10;63.90;;;;;;5012570;28;20203;-62
2022/11/26 12:00:46;;;;;;;7.37;4.50;;;10.10;65.20;;;;;;5013540;28;20183;-62
2022/11/26 12:03:43;;;;;;;6.10;4.10;;;10.20;64.40;;;;;;5006891;28;20225;-62
2022/11/26 12:06:42;;;;;;;5.13;4.10;;;10.30;65.30;;;;;;5009564;28;20214;-61
2022/11/26 12:09:35;;;;;;;8.83;5.07;;;10.30;64.00;;;;;;5001606;28;20204;-61
2022/11/26 12:12:25;;;;;;;7.87;5.10;;;10.30;63.80;;;;;;5001700;28;20184;-60
2022/11/26 12:15:28;;;;;;;6.87;5.37;;;10.20;65.30;;;;;;5009876;28;20206;-60
2022/11/26 12:18:12;;;;;;;5.70;3.97;;;10.20;66.50;;;;;;4958805;28;20196;-62
2022/11/26 12:20:46;;;;;;;7.73;4.37;;;10.30;67.00;;;;;;5005476;28;20196;-61
2022/11/26 12:23:39;;;;;;;6.57;4.00;;;10.30;65.50;;;;;;5012504;28;20187;-62
2022/11/26 12:26:29;;;;;;;8.23;3.80;;;10.30;66.10;;;;;;5010105;28;20195;-59
2022/11/26 12:29:04;;;;;;;7.07;4.50;;;10.40;66.30;;;;;;5010081;28;20199;-58
2022/11/26 12:31:30;;;;;;;5.30;3.70;;;10.50;67.00;;;;;;5011316;28;20187;-60
2022/11/26 12:34:01;;;;;;;6.00;4.47;;;10.60;67.00;;;;;;5013563;28;20226;-60
2022/11/26 12:36:59;;;;;;;6.83;3.83;;;10.60;63.60;;;;;;5014014;28;20180;-60
2022/11/26 12:39:45;;;;;;;8.63;3.70;;;10.60;63.90;;;;;;5010563;28;20278;-61
2022/11/26 12:42:36;;;;;;;6.33;4.10;;;10.60;62.40;;;;;;5015542;28;20183;-60
2022/11/26 12:45:31;;;;;;;6.10;3.60;;;10.50;62.40;;;;;;5008995;28;20183;-59
2022/11/26 12:48:03;;;;;;;7.13;3.73;;;10.30;62.60;;;;;;5008673;28;20199;-59
2022/11/26 12:50:38;;;;;;;4.40;3.40;;;10.30;62.80;;;;;;5015353;28;20200;-59
2022/11/26 12:53:37;;;;;;;5.30;3.37;;;10.40;63.70;;;;;;5013544;28;20279;-59
2022/11/26 12:56:13;;;;;;;5.60;3.73;;;10.40;65.30;;;;;;5013096;28;20192;-59
2022/11/26 12:58:48;;;;;;;8.10;3.90;;;10.40;65.40;;;;;;5016079;28;20187;-58
2022/11/26 13:01:14;;;;;;;4.63;3.17;;;10.40;66.10;;;;;;5007189;28;20194;-59
2022/11/26 13:03:40;;;;;;;5.97;3.97;;;10.40;66.40;;;;;;4999933;28;20286;-59
2022/11/26 13:06:33;;;;;;;9.67;5.40;;;10.50;66.70;;;;;;4982818;28;20223;-59
2022/11/26 13:08:58;;;;;;;8.50;5.70;;;10.50;67.20;;;;;;5012508;28;20247;-59
2022/11/26 13:11:45;;;;;;;7.33;5.30;;;10.60;66.90;;;;;;5014104;28;20180;-59
2022/11/26 13:14:29;;;;;;;6.30;3.97;;;10.60;65.10;;;;;;5008192;28;20212;-59